Wakefield, Louisiana
Current Conditions -  °F | °C
As of 2:35 AM on Monday 24 Nov 2014 (Local Time) from KHZR Reporting Station
Haze Haze  
Wind Chill: 64°   Ceiling: Unl
Heat Index: 64°   Visibility: 4mi
Dew Point: 63°   Wind: 3mph
Humidity: 97%   Direction: 220°SW
Pressure: 29.73"   Gusts: NA
Location:  30.89°N, 91.35°W
Report Text: KHZR 240835Z AUTO 22003KT 4SM BR CLR 18/17 A2973 RMK AO2 T01780174
Loading
Personal Weather Stations






























Interactive Weather Map New forecast layout! Learn more

10-Day Weather Forecast

Advertisements
Track Severe Weather on mobile